createdAt,value
2022-09-07T00:01:01.355Z,99102.97
2022-09-07T00:03:28.259Z,99105.69
2022-09-07T00:05:55.003Z,99109.59
2022-09-07T00:08:24.375Z,99109.59
2022-09-07T00:10:53.382Z,99104.50
2022-09-07T00:13:20.345Z,99107.97
2022-09-07T00:15:47.005Z,99109.03
2022-09-07T00:18:13.585Z,99103.13
2022-09-07T00:20:40.120Z,99099.13
2022-09-07T00:23:06.900Z,99102.25
2022-09-07T00:25:39.096Z,99097.03
2022-09-07T00:28:08.065Z,99091.84
2022-09-07T00:30:40.445Z,99096.44
2022-09-07T00:33:07.001Z,99093.28
2022-09-07T00:35:33.560Z,99092.91
2022-09-07T00:38:00.276Z,99091.75
2022-09-07T00:40:26.891Z,99087.41
2022-09-07T00:42:53.464Z,99086.28
2022-09-07T00:45:21.257Z,99087.06
2022-09-07T00:47:54.528Z,99088.56
2022-09-07T00:50:23.971Z,99086.28
2022-09-07T00:52:59.954Z,99066.31
2022-09-07T00:55:27.684Z,99076.91
2022-09-07T00:57:56.377Z,99079.19
2022-09-07T01:00:23.516Z,99085.50
2022-09-07T01:02:54.178Z,99079.56
2022-09-07T01:05:33.246Z,99079.91
2022-09-07T01:07:59.831Z,99080.28
2022-09-07T01:10:30.679Z,99086.56
2022-09-07T01:12:58.265Z,99081.44
2022-09-07T01:15:48.577Z,99083.72
2022-09-07T01:18:33.280Z,99085.56
2022-09-07T01:21:11.900Z,99092.19
2022-09-07T01:24:09.142Z,99083.53
2022-09-07T01:26:48.130Z,99088.97
2022-09-07T01:29:39.884Z,99081.91
2022-09-07T01:32:21.441Z,99092.84
2022-09-07T01:34:53.289Z,99090.47
2022-09-07T01:37:38.282Z,99092.75
2022-09-07T01:40:15.523Z,99083.25
2022-09-07T01:42:52.860Z,99090.56
2022-09-07T01:45:25.593Z,99086.94
2022-09-07T01:47:56.504Z,99093.94
2022-09-07T01:50:32.084Z,99095.88
2022-09-07T01:53:07.555Z,99101.34
2022-09-07T01:55:45.611Z,99091.97
2022-09-07T01:58:24.275Z,99093.94
2022-09-07T02:01:07.768Z,99097.03
2022-09-07T02:03:49.603Z,99099.31
2022-09-07T02:06:51.937Z,99095.28
2022-09-07T02:09:23.459Z,99099.88
2022-09-07T02:11:50.405Z,99092.16
2022-09-07T02:14:16.944Z,99102.78
2022-09-07T02:17:00.312Z,99102.34
2022-09-07T02:19:33.432Z,99107.00
2022-09-07T02:22:05.455Z,99101.09
2022-09-07T02:24:37.751Z,99104.44
2022-09-07T02:27:07.808Z,99106.75
2022-09-07T02:29:34.511Z,99111.50
2022-09-07T02:32:01.541Z,99111.06
2022-09-07T02:34:28.144Z,99117.69
2022-09-07T02:36:55.729Z,99120.00
2022-09-07T02:39:22.343Z,99114.53
2022-09-07T02:41:48.882Z,99125.13
2022-09-07T02:44:25.218Z,99125.47
2022-09-07T02:47:20.418Z,99125.47
2022-09-07T02:50:27.576Z,99128.19
2022-09-07T02:52:56.827Z,99122.38
2022-09-07T02:55:47.713Z,99122.38
2022-09-07T02:58:39.890Z,99121.56
2022-09-07T03:01:06.579Z,99128.63
2022-09-07T03:03:54.807Z,99132.78
2022-09-07T03:06:39.595Z,99126.06
2022-09-07T03:09:13.150Z,99126.88
2022-09-07T03:11:39.726Z,99129.63
2022-09-07T03:14:22.611Z,99130.31
2022-09-07T03:16:51.314Z,99129.63
2022-09-07T03:19:18.463Z,99124.59
2022-09-07T03:21:45.604Z,99136.41
2022-09-07T03:24:12.185Z,99132.97
2022-09-07T03:26:43.456Z,99131.13
2022-09-07T03:29:10.077Z,99131.56
2022-09-07T03:31:36.868Z,99130.06
2022-09-07T03:34:04.030Z,99130.88
2022-09-07T03:36:31.655Z,99129.72
2022-09-07T03:39:01.420Z,99126.97
2022-09-07T03:41:28.489Z,99132.88
2022-09-07T03:43:55.211Z,99127.41
2022-09-07T03:46:21.908Z,99128.91
2022-09-07T03:48:50.171Z,99129.28
2022-09-07T03:51:18.166Z,99128.03
2022-09-07T03:53:46.362Z,99140.47
2022-09-07T03:56:18.446Z,99135.00
2022-09-07T03:58:45.785Z,99134.81
2022-09-07T04:01:15.999Z,99134.09
2022-09-07T04:03:43.824Z,99135.25
2022-09-07T04:06:11.073Z,99133.22
2022-09-07T04:08:38.543Z,99124.50
2022-09-07T04:11:06.966Z,99125.19
2022-09-07T04:13:35.936Z,99131.38
2022-09-07T04:16:19.833Z,99133.22
2022-09-07T04:18:47.001Z,99131.19
2022-09-07T04:21:13.769Z,99138.16
2022-09-07T04:23:41.936Z,99143.63
2022-09-07T04:26:36.043Z,99144.34
2022-09-07T04:29:04.223Z,99145.94
2022-09-07T04:31:34.275Z,99152.09
2022-09-07T04:34:01.301Z,99152.09
2022-09-07T04:36:28.141Z,99153.59
2022-09-07T04:38:57.474Z,99152.66
2022-09-07T04:41:24.251Z,99152.22
2022-09-07T04:43:54.531Z,99152.56
2022-09-07T04:46:30.099Z,99157.25
2022-09-07T04:48:59.221Z,99150.97
2022-09-07T04:51:28.993Z,99152.78
2022-09-07T04:53:57.486Z,99150.03
2022-09-07T04:56:24.236Z,99147.19
2022-09-07T04:58:51.498Z,99153.53
2022-09-07T05:01:20.973Z,99162.25
2022-09-07T05:03:48.098Z,99158.13
2022-09-07T05:06:16.653Z,99156.97
2022-09-07T05:08:45.839Z,99159.91
2022-09-07T05:11:14.030Z,99151.75
2022-09-07T05:13:40.938Z,99153.69
2022-09-07T05:16:18.859Z,99157.00
2022-09-07T05:18:50.048Z,99159.84
2022-09-07T05:21:19.310Z,99159.72
2022-09-07T05:23:49.209Z,99167.47
2022-09-07T05:26:15.779Z,99172.78
2022-09-07T05:28:42.455Z,99179.25
2022-09-07T05:31:18.519Z,99172.19
2022-09-07T05:36:33.568Z,99189.13
2022-09-07T05:39:00.187Z,99186.41
2022-09-07T05:41:27.403Z,99190.44
2022-09-07T05:46:41.599Z,99190.13
2022-09-07T05:49:08.397Z,99187.88
2022-09-07T05:51:37.034Z,99196.66
2022-09-07T05:54:04.111Z,99203.88
2022-09-07T05:56:33.339Z,99205.47
2022-09-07T05:58:59.879Z,99202.13
2022-09-07T06:01:26.476Z,99203.16
2022-09-07T06:03:53.088Z,99197.53
2022-09-07T06:06:19.708Z,99212.91
2022-09-07T06:08:49.259Z,99203.78
2022-09-07T06:11:18.848Z,99214.41
2022-09-07T06:13:45.505Z,99211.63
2022-09-07T06:16:14.077Z,99210.94
2022-09-07T06:18:43.417Z,99208.66
2022-09-07T06:21:18.624Z,99212.53
2022-09-07T06:23:46.235Z,99205.25
2022-09-07T06:26:14.042Z,99198.47
2022-09-07T06:28:49.165Z,99206.69
2022-09-07T06:31:19.470Z,99211.44
2022-09-07T06:33:47.848Z,99216.75
2022-09-07T06:36:17.296Z,99231.31
2022-09-07T06:38:44.551Z,99237.97
2022-09-07T06:44:02.700Z,99243.53
2022-09-07T06:49:15.981Z,99245.75
2022-09-07T06:51:42.578Z,99245.75
2022-09-07T06:56:56.434Z,99254.88
2022-09-07T06:59:22.971Z,99255.94
2022-09-07T07:01:49.626Z,99259.81
2022-09-07T07:04:16.296Z,99263.72
2022-09-07T07:06:42.857Z,99271.97
2022-09-07T07:09:13.753Z,99249.28
2022-09-07T07:11:40.398Z,99263.97
2022-09-07T07:14:07.065Z,99263.97
2022-09-07T07:16:33.696Z,99274.47
2022-09-07T07:19:00.319Z,99276.66
2022-09-07T07:21:28.933Z,99278.13
2022-09-07T07:24:05.015Z,99276.75
2022-09-07T07:26:34.725Z,99282.22
2022-09-07T07:29:02.868Z,99272.88
2022-09-07T07:31:32.648Z,99287.88
2022-09-07T07:33:59.423Z,99286.88
2022-09-07T07:36:27.301Z,99293.25
2022-09-07T07:44:18.413Z,99286.50
2022-09-07T07:46:50.660Z,99296.16
2022-09-07T07:49:17.632Z,99286.09
2022-09-07T07:54:34.026Z,99285.94
2022-09-07T07:57:00.565Z,99282.97
2022-09-07T07:59:27.085Z,99282.72
2022-09-07T08:01:53.890Z,99267.94
2022-09-07T08:04:20.544Z,99273.44
2022-09-07T08:06:47.085Z,99280.88
2022-09-07T08:09:13.624Z,99280.72
2022-09-07T08:11:40.612Z,99280.63
2022-09-07T08:14:08.627Z,99279.44
2022-09-07T08:16:36.411Z,99286.78
2022-09-07T08:19:03.507Z,99290.72
2022-09-07T08:21:30.073Z,99296.94
2022-09-07T08:23:56.944Z,99292.47
2022-09-07T08:26:23.500Z,99309.00
2022-09-07T08:28:50.047Z,99303.38
2022-09-07T08:31:17.712Z,99297.53
2022-09-07T08:33:45.250Z,99306.13
2022-09-07T08:36:13.996Z,99299.63
2022-09-07T08:38:41.079Z,99315.19
2022-09-07T08:41:33.542Z,99317.75
2022-09-07T08:44:03.836Z,99314.28
2022-09-07T08:46:38.690Z,99306.59
2022-09-07T08:49:10.705Z,99309.28
2022-09-07T08:51:41.181Z,99317.94
2022-09-07T08:54:12.523Z,99319.50
2022-09-07T08:57:20.511Z,99316.53
2022-09-07T08:59:46.736Z,99314.16
2022-09-07T09:05:20.552Z,99326.00
2022-09-07T09:06:11.241Z,99335.63
2022-09-07T09:08:05.916Z,99333.34
2022-09-07T09:11:00.427Z,99330.72
2022-09-07T09:13:53.100Z,99330.06
2022-09-07T09:16:30.677Z,99332.34
2022-09-07T09:19:19.313Z,99322.94
2022-09-07T09:21:46.061Z,99334.91
2022-09-07T09:24:17.223Z,99329.41
2022-09-07T09:29:22.770Z,99331.34
2022-09-07T09:31:49.841Z,99332.97
2022-09-07T09:34:23.827Z,99341.16
2022-09-07T09:36:55.825Z,99343.78
2022-09-07T09:39:36.988Z,99334.44
2022-09-07T09:42:23.792Z,99329.59
2022-09-07T09:44:50.875Z,99332.44
2022-09-07T09:47:32.738Z,99335.28
2022-09-07T09:50:04.999Z,99327.38
2022-09-07T09:52:45.020Z,99323.31
2022-09-07T09:55:36.142Z,99316.06
2022-09-07T10:01:36.068Z,99304.81
2022-09-07T10:04:38.450Z,99292.69
2022-09-07T10:07:25.917Z,99287.84
2022-09-07T10:09:54.468Z,99288.53
2022-09-07T10:12:32.238Z,99273.69
2022-09-07T10:15:01.327Z,99271.41
2022-09-07T10:17:43.569Z,99271.69
2022-09-07T10:20:15.458Z,99269.47
2022-09-07T10:22:53.972Z,99261.69
2022-09-07T10:25:41.972Z,99258.72
2022-09-07T10:28:11.611Z,99265.53
2022-09-07T10:30:45.810Z,99263.63
2022-09-07T10:33:28.740Z,99250.59
2022-09-07T10:35:58.528Z,99240.75
2022-09-07T10:38:29.508Z,99239.97
2022-09-07T10:41:09.701Z,99252.56
2022-09-07T10:43:47.294Z,99249.31
2022-09-07T10:49:21.559Z,99246.03
2022-09-07T10:52:21.344Z,99253.97
2022-09-07T10:55:10.177Z,99238.22
2022-09-07T10:57:55.151Z,99243.38
2022-09-07T11:00:22.817Z,99245.00
2022-09-07T11:03:28.942Z,99249.38
2022-09-07T11:06:01.429Z,99241.91
2022-09-07T11:12:08.073Z,99234.72
2022-09-07T11:14:42.293Z,99236.81
2022-09-07T11:17:17.105Z,99228.28
2022-09-07T11:19:54.778Z,99228.38
2022-09-07T11:22:28.936Z,99232.34
2022-09-07T11:25:32.804Z,99226.84
2022-09-07T11:28:13.022Z,99241.06
2022-09-07T11:30:47.705Z,99237.13
2022-09-07T11:33:24.328Z,99230.00
2022-09-07T11:35:58.655Z,99231.56
2022-09-07T11:38:33.797Z,99226.78
2022-09-07T11:41:12.123Z,99219.66
2022-09-07T11:43:45.501Z,99212.56
2022-09-07T11:46:22.048Z,99217.63
2022-09-07T11:48:55.765Z,99215.66
2022-09-07T11:51:47.299Z,99210.47
2022-09-07T11:54:29.234Z,99215.56
2022-09-07T11:57:10.938Z,99206.00
2022-09-07T12:00:19.444Z,99200.94
2022-09-07T12:03:14.057Z,99187.94
2022-09-07T12:05:49.672Z,99188.72
2022-09-07T12:09:01.114Z,99178.91
2022-09-07T12:11:49.243Z,99180.56
2022-09-07T12:14:21.916Z,99168.03
2022-09-07T12:16:51.421Z,99173.97
2022-09-07T12:19:28.090Z,99174.78
2022-09-07T12:21:57.933Z,99182.31
2022-09-07T12:24:33.757Z,99181.09
2022-09-07T12:27:01.411Z,99170.81
2022-09-07T12:29:29.805Z,99177.13
2022-09-07T12:32:07.394Z,99180.66
2022-09-07T12:34:52.263Z,99184.19
2022-09-07T12:37:40.469Z,99193.56
2022-09-07T12:40:34.756Z,99195.06
2022-09-07T12:43:13.644Z,99185.94
2022-09-07T12:45:50.785Z,99183.16
2022-09-07T12:48:17.321Z,99163.81
2022-09-07T12:50:59.019Z,99165.72
2022-09-07T12:53:44.101Z,99164.13
2022-09-07T12:56:20.164Z,99161.78
2022-09-07T12:58:52.540Z,99146.09
2022-09-07T13:01:41.136Z,99133.47
2022-09-07T13:04:37.551Z,99128.72
2022-09-07T13:07:30.778Z,99136.25
2022-09-07T13:09:59.830Z,99148.53
2022-09-07T13:12:54.716Z,99143.03
2022-09-07T13:15:46.640Z,99136.28
2022-09-07T13:18:28.593Z,99133.53
2022-09-07T13:21:07.224Z,99131.97
2022-09-07T13:23:41.000Z,99133.94
2022-09-07T13:26:11.021Z,99132.75
2022-09-07T13:28:40.669Z,99119.38
2022-09-07T13:31:25.001Z,99114.63
2022-09-07T13:33:53.097Z,99130.81
2022-09-07T13:36:45.586Z,99132.00
2022-09-07T13:39:15.805Z,99129.22
2022-09-07T13:41:52.323Z,99133.22
2022-09-07T13:44:26.378Z,99135.19
2022-09-07T13:46:58.258Z,99138.72
2022-09-07T13:49:43.389Z,99130.44
2022-09-07T13:52:23.183Z,99134.03
2022-09-07T13:55:20.738Z,99126.97
2022-09-07T13:58:01.832Z,99127.69
2022-09-07T14:00:28.817Z,99113.88
2022-09-07T14:03:05.401Z,99105.97
2022-09-07T14:05:32.091Z,99095.34
2022-09-07T14:07:58.700Z,99091.41
2022-09-07T14:10:26.606Z,99080.00
2022-09-07T14:13:05.242Z,99080.03
2022-09-07T14:15:42.515Z,99079.22
2022-09-07T14:18:31.352Z,99093.03
2022-09-07T14:20:58.779Z,99106.88
2022-09-07T14:23:29.979Z,99101.31
2022-09-07T14:26:17.723Z,99101.69
2022-09-07T14:28:47.659Z,99094.19
2022-09-07T14:31:17.315Z,99096.56
2022-09-07T14:34:00.856Z,99094.19
2022-09-07T14:36:44.820Z,99098.16
2022-09-07T14:39:15.581Z,99095.00
2022-09-07T14:41:43.281Z,99092.63
2022-09-07T14:44:34.080Z,99092.59
2022-09-07T14:47:19.589Z,99078.00
2022-09-07T14:49:52.564Z,99064.22
2022-09-07T14:52:23.586Z,99064.22
2022-09-07T14:54:53.817Z,99069.72
2022-09-07T14:57:30.667Z,99065.00
2022-09-07T14:59:58.925Z,99053.47
2022-09-07T15:02:35.641Z,99026.19
2022-09-07T15:05:18.624Z,99005.00
2022-09-07T15:07:52.821Z,99012.19
2022-09-07T15:10:23.232Z,99027.44
2022-09-07T15:12:55.148Z,99025.03
2022-09-07T15:15:26.209Z,99023.78
2022-09-07T15:17:59.036Z,99021.22
2022-09-07T15:20:35.532Z,99010.22
2022-09-07T15:23:16.256Z,99018.84
2022-09-07T15:25:50.328Z,99028.94
2022-09-07T15:34:10.665Z,99014.81
2022-09-07T15:36:40.552Z,99015.97
2022-09-07T15:39:14.667Z,99019.22
2022-09-07T15:41:41.169Z,99016.22
2022-09-07T15:44:09.099Z,99025.00
2022-09-07T15:46:37.148Z,99017.88
2022-09-07T15:49:04.694Z,99011.75
2022-09-07T15:54:20.616Z,99011.06
2022-09-07T15:59:34.926Z,99010.38
2022-09-07T16:02:01.993Z,99015.69
2022-09-07T16:04:29.415Z,99005.94
2022-09-07T16:06:56.054Z,99003.25
2022-09-07T16:09:22.713Z,98995.44
2022-09-07T16:11:50.831Z,98999.44
2022-09-07T16:14:17.703Z,98996.69
2022-09-07T16:19:34.740Z,99003.81
2022-09-07T16:22:01.900Z,98995.13
2022-09-07T16:24:28.676Z,98999.50
2022-09-07T16:26:55.270Z,98987.25
2022-09-07T16:29:21.812Z,98985.28
2022-09-07T16:34:34.943Z,98983.69
2022-09-07T16:37:01.822Z,98980.94
2022-09-07T16:39:32.031Z,98976.59
2022-09-07T16:42:00.091Z,98979.38
2022-09-07T16:44:26.774Z,98977.78
2022-09-07T16:46:53.303Z,98983.72
2022-09-07T16:49:19.891Z,98985.28
2022-09-07T16:51:46.408Z,98973.41
2022-09-07T16:54:13.992Z,98983.66
2022-09-07T16:56:40.728Z,98988.78
2022-09-07T16:59:11.432Z,98980.50
2022-09-07T17:01:38.488Z,98986.78
2022-09-07T17:04:10.302Z,98983.16
2022-09-07T17:06:37.986Z,98984.72
2022-09-07T17:09:04.723Z,98977.56
2022-09-07T17:11:34.368Z,98979.50
2022-09-07T17:14:01.453Z,98972.34
2022-09-07T17:16:30.922Z,98976.19
2022-09-07T17:21:46.567Z,98980.75
2022-09-07T17:24:13.292Z,98963.78
2022-09-07T17:26:42.235Z,98960.94
2022-09-07T17:29:09.624Z,98961.28
2022-09-07T17:34:24.356Z,98953.75
2022-09-07T17:36:51.594Z,98960.00
2022-09-07T17:39:19.312Z,98948.19
2022-09-07T17:41:52.627Z,98937.88
2022-09-07T17:44:19.592Z,98942.97
2022-09-07T17:46:46.170Z,98939.41
2022-09-07T17:49:14.531Z,98946.09
2022-09-07T17:51:41.523Z,98938.56
2022-09-07T17:54:13.256Z,98942.41
2022-09-07T17:56:41.320Z,98937.25
2022-09-07T18:01:55.927Z,98918.66
2022-09-07T18:04:23.503Z,98912.31
2022-09-07T18:06:50.515Z,98914.19
2022-09-07T18:09:17.591Z,98936.50
2022-09-07T18:11:45.863Z,98931.66
2022-09-07T18:14:14.925Z,98920.59
2022-09-07T18:16:43.694Z,98920.56
2022-09-07T18:19:11.410Z,98926.00
2022-09-07T18:21:40.807Z,98920.03
2022-09-07T18:24:17.405Z,98918.38
2022-09-07T18:26:44.717Z,98921.75
2022-09-07T18:29:28.142Z,98919.69
2022-09-07T18:31:55.948Z,98901.91
2022-09-07T18:34:23.195Z,98907.25
2022-09-07T18:36:50.215Z,98914.91
2022-09-07T18:39:16.880Z,98910.44
2022-09-07T18:41:43.406Z,98927.53
2022-09-07T18:46:56.599Z,98935.56
2022-09-07T18:49:23.531Z,98935.44
2022-09-07T18:54:38.673Z,98929.00
2022-09-07T18:57:06.723Z,98916.03
2022-09-07T18:59:33.447Z,98925.72
2022-09-07T19:02:03.910Z,98924.00
2022-09-07T19:07:20.607Z,98921.25
2022-09-07T19:09:48.369Z,98926.59
2022-09-07T19:12:15.351Z,98940.13
2022-09-07T19:14:42.348Z,98929.47
2022-09-07T19:17:11.058Z,98926.22
2022-09-07T19:19:38.881Z,98932.81
2022-09-07T19:22:06.080Z,98931.50
2022-09-07T19:24:33.288Z,98925.09
2022-09-07T19:27:01.133Z,98921.88
2022-09-07T19:29:28.416Z,98918.59
2022-09-07T19:32:04.445Z,98903.66
2022-09-07T19:34:39.034Z,98896.91
2022-09-07T19:37:07.189Z,98891.00
2022-09-07T19:39:34.156Z,98896.38
2022-09-07T19:42:02.158Z,98897.19
2022-09-07T19:44:28.699Z,98903.41
2022-09-07T19:46:55.612Z,98907.28
2022-09-07T19:49:22.586Z,98918.25
2022-09-07T19:51:51.305Z,98924.06
2022-09-07T19:54:17.866Z,98923.56
2022-09-07T19:56:44.789Z,98910.16
2022-09-07T19:59:12.455Z,98909.63
2022-09-07T20:01:40.746Z,98906.13
2022-09-07T20:04:13.786Z,98906.84
2022-09-07T20:06:42.832Z,98897.41
2022-09-07T20:09:09.469Z,98894.31
2022-09-07T20:11:36.673Z,98899.78
2022-09-07T20:14:03.759Z,98892.72
2022-09-07T20:16:31.221Z,98878.63
2022-09-07T20:18:59.584Z,98881.63
2022-09-07T20:21:26.969Z,98879.16
2022-09-07T20:23:53.651Z,98884.22
2022-09-07T20:26:21.718Z,98893.16
2022-09-07T20:29:10.661Z,98886.00
2022-09-07T20:31:40.814Z,98890.59
2022-09-07T20:34:08.869Z,98899.97
2022-09-07T20:36:35.631Z,98899.19
2022-09-07T20:39:02.190Z,98894.41
2022-09-07T20:41:31.414Z,98891.34
2022-09-07T20:44:00.053Z,98891.66
2022-09-07T20:46:28.412Z,98898.28
2022-09-07T20:48:55.194Z,98900.16
2022-09-07T20:51:21.930Z,98894.34
2022-09-07T20:53:49.776Z,98904.47
2022-09-07T20:56:19.354Z,98902.19
2022-09-07T20:58:47.557Z,98887.34
2022-09-07T21:01:17.819Z,98883.91
2022-09-07T21:03:49.638Z,98892.91
2022-09-07T21:06:17.556Z,98893.72
2022-09-07T21:08:45.393Z,98887.53
2022-09-07T21:11:18.258Z,98890.69
2022-09-07T21:13:44.947Z,98886.81
2022-09-07T21:16:14.002Z,98871.97
2022-09-07T21:18:41.821Z,98878.66
2022-09-07T21:21:24.450Z,98876.72
2022-09-07T21:23:59.505Z,98866.94
2022-09-07T21:26:27.970Z,98872.75
2022-09-07T21:28:59.227Z,98872.69
2022-09-07T21:31:26.555Z,98867.22
2022-09-07T21:33:55.543Z,98862.53
2022-09-07T21:36:22.404Z,98867.94
2022-09-07T21:38:50.025Z,98862.00
2022-09-07T21:41:19.215Z,98855.34
2022-09-07T21:43:45.781Z,98855.25
2022-09-07T21:46:17.212Z,98853.66
2022-09-07T21:48:45.509Z,98848.91
2022-09-07T21:51:13.637Z,98850.06
2022-09-07T21:53:40.776Z,98840.63
2022-09-07T21:56:10.316Z,98841.69
2022-09-07T21:58:36.833Z,98846.72
2022-09-07T22:01:12.254Z,98863.81
2022-09-07T22:03:40.503Z,98856.31
2022-09-07T22:06:08.472Z,98853.34
2022-09-07T22:08:36.500Z,98849.00
2022-09-07T22:11:14.594Z,98857.19
2022-09-07T22:13:41.582Z,98850.16
2022-09-07T22:16:08.754Z,98854.13
2022-09-07T22:18:37.924Z,98842.41
2022-09-07T22:21:04.509Z,98850.22
2022-09-07T22:23:34.656Z,98838.53
2022-09-07T22:26:01.558Z,98834.19
2022-09-07T22:28:31.622Z,98833.72
2022-09-07T22:31:10.379Z,98839.91
2022-09-07T22:33:37.380Z,98844.63
2022-09-07T22:36:15.441Z,98844.53
2022-09-07T22:38:43.811Z,98837.38
2022-09-07T22:41:15.418Z,98829.13
2022-09-07T22:49:16.172Z,98816.16
2022-09-07T22:54:27.703Z,98813.06
2022-09-07T22:56:54.303Z,98806.81
2022-09-07T22:59:20.846Z,98809.13
2022-09-07T23:01:47.413Z,98806.38
2022-09-07T23:04:14.089Z,98796.13
2022-09-07T23:06:42.624Z,98797.28
2022-09-07T23:09:11.970Z,98788.22
2022-09-07T23:11:39.181Z,98780.81
2022-09-07T23:14:11.108Z,98769.38
2022-09-07T23:16:37.757Z,98770.09
2022-09-07T23:19:05.015Z,98762.59
2022-09-07T23:21:31.660Z,98757.84
2022-09-07T23:24:00.975Z,98764.91
2022-09-07T23:26:30.448Z,98761.75
2022-09-07T23:29:00.017Z,98762.88
2022-09-07T23:31:28.197Z,98766.75
2022-09-07T23:33:57.409Z,98753.06
2022-09-07T23:36:24.886Z,98739.88
2022-09-07T23:38:54.435Z,98734.84
2022-09-07T23:41:21.181Z,98733.69
2022-09-07T23:43:48.459Z,98742.31
2022-09-07T23:46:16.033Z,98745.50
2022-09-07T23:48:44.161Z,98755.34
2022-09-07T23:51:11.544Z,98753.84
2022-09-07T23:53:38.112Z,98759.00
2022-09-07T23:56:05.301Z,98767.72
2022-09-07T23:58:32.073Z,98776.81
